Time;durP1;ratioP1;P1;durP2;ratioP2;P2;SDS_P1;SDS_P2;PMS_P1;PMS_P2;Temp;Humidity;BMP_temperature;BMP_pressure;BME280_temperature;BME280_humidity;BME280_pressure;Samples;Min_cycle;Max_cycle;Signal;HPM_P1;HPM_P2
2021/05/01 00:02:10;;;;;;;9.55;8.65;;;;;;;;;;5078019;28;20232;-81
2021/05/01 00:04:37;;;;;;;9.35;8.40;;;;;;;;;;5078678;28;20236;-83
2021/05/01 00:07:05;;;;;;;8.88;7.97;;;;;;;;;;5075590;28;20208;-83
2021/05/01 00:09:32;;;;;;;9.30;7.95;;;;;;;;;;5075827;28;20205;-83
2021/05/01 00:11:59;;;;;;;8.77;7.97;;;;;;;;;;5075598;28;20220;-83
2021/05/01 00:14:27;;;;;;;9.18;8.27;;;;;;;;;;5076620;28;20866;-83
2021/05/01 00:16:54;;;;;;;11.65;9.77;;;;;;;;;;5076287;28;20200;-83
2021/05/01 00:19:21;;;;;;;8.88;7.97;;;;;;;;;;5076205;28;20738;-83
2021/05/01 00:21:48;;;;;;;9.25;8.43;;;;;;;;;;5076517;28;20204;-83
2021/05/01 00:24:15;;;;;;;8.70;7.90;;;;;;;;;;5076010;28;20221;-83
2021/05/01 00:26:42;;;;;;;10.73;8.70;;;;;;;;;;5076673;28;20201;-83
2021/05/01 00:29:09;;;;;;;9.73;8.75;;;;;;;;;;5076911;28;20651;-83
2021/05/01 00:31:36;;;;;;;9.15;8.20;;;;;;;;;;5076245;28;20205;-84
2021/05/01 00:34:04;;;;;;;10.80;8.93;;;;;;;;;;5076019;28;20208;-83
2021/05/01 00:36:31;;;;;;;9.18;8.27;;;;;;;;;;5075792;28;20209;-83
2021/05/01 00:38:58;;;;;;;11.00;9.32;;;;;;;;;;5076051;28;20205;-83
2021/05/01 00:41:25;;;;;;;11.45;8.70;;;;;;;;;;5075903;28;20208;-84
2021/05/01 00:43:52;;;;;;;10.80;9.70;;;;;;;;;;5076436;28;20254;-83
2021/05/01 00:46:20;;;;;;;10.25;9.18;;;;;;;;;;5076009;28;20209;-83
2021/05/01 00:48:47;;;;;;;10.48;9.45;;;;;;;;;;5076262;28;20259;-83
2021/05/01 00:51:14;;;;;;;9.75;8.75;;;;;;;;;;5076851;28;20220;-83
2021/05/01 00:53:41;;;;;;;9.13;8.23;;;;;;;;;;5076246;28;20216;-83
2021/05/01 00:56:08;;;;;;;11.60;9.60;;;;;;;;;;5076022;28;20201;-83
2021/05/01 00:58:35;;;;;;;10.98;8.98;;;;;;;;;;5076126;28;20200;-83
2021/05/01 01:01:16;;;;;;;9.93;8.93;;;;;;;;;;5075976;28;20204;-83
2021/05/01 01:03:45;;;;;;;10.50;9.48;;;;;;;;;;5075825;28;20228;-83
2021/05/01 01:06:13;;;;;;;11.52;9.40;;;;;;;;;;5076932;28;20223;-83
2021/05/01 01:08:40;;;;;;;11.00;8.82;;;;;;;;;;5076274;28;20224;-84
2021/05/01 01:11:07;;;;;;;14.45;11.27;;;;;;;;;;5076142;28;20667;-83
2021/05/01 01:13:35;;;;;;;11.88;9.10;;;;;;;;;;5076032;28;20220;-83
2021/05/01 01:16:02;;;;;;;8.98;8.07;;;;;;;;;;5076718;28;20270;-83
2021/05/01 01:18:29;;;;;;;9.45;8.55;;;;;;;;;;5076664;28;20192;-83
2021/05/01 01:21:00;;;;;;;10.88;9.77;;;;;;;;;;5077587;28;20205;-83
2021/05/01 01:23:28;;;;;;;10.50;9.45;;;;;;;;;;5076399;28;20224;-83
2021/05/01 01:25:54;;;;;;;10.25;9.10;;;;;;;;;;5075550;28;20725;-83
2021/05/01 01:28:22;;;;;;;12.43;11.15;;;;;;;;;;5075858;28;20209;-83
2021/05/01 01:30:49;;;;;;;11.73;10.35;;;;;;;;;;5076327;28;20213;-83
2021/05/01 01:33:16;;;;;;;11.98;10.40;;;;;;;;;;5075879;28;20227;-83
2021/05/01 01:35:42;;;;;;;12.82;11.48;;;;;;;;;;5075294;28;20204;-83
2021/05/01 01:38:09;;;;;;;11.90;10.70;;;;;;;;;;5075423;28;20201;-83
2021/05/01 01:40:38;;;;;;;11.85;10.57;;;;;;;;;;5076017;28;20204;-81
2021/05/01 01:43:05;;;;;;;10.95;9.80;;;;;;;;;;5076148;28;20228;-81
2021/05/01 01:45:33;;;;;;;11.25;10.13;;;;;;;;;;5077287;28;20250;-81
2021/05/01 01:48:00;;;;;;;9.95;9.05;;;;;;;;;;5077024;28;20197;-81
2021/05/01 01:50:28;;;;;;;11.50;10.40;;;;;;;;;;5077163;28;20745;-80
2021/05/01 01:52:56;;;;;;;12.00;10.75;;;;;;;;;;5077522;28;20217;-81
2021/05/01 01:55:24;;;;;;;11.48;10.27;;;;;;;;;;5077010;28;20690;-81
2021/05/01 01:57:53;;;;;;;11.20;9.88;;;;;;;;;;5077433;28;20713;-82
2021/05/01 02:00:24;;;;;;;12.77;10.38;;;;;;;;;;5077703;28;20200;-84
2021/05/01 02:02:51;;;;;;;10.43;9.32;;;;;;;;;;5075718;28;20723;-83
2021/05/01 02:05:19;;;;;;;11.70;10.20;;;;;;;;;;5074734;28;20240;-83
2021/05/01 02:07:45;;;;;;;10.93;9.93;;;;;;;;;;5075262;28;20694;-83
2021/05/01 02:10:15;;;;;;;13.23;11.90;;;;;;;;;;5075634;28;20684;-83
2021/05/01 02:12:42;;;;;;;13.63;10.10;;;;;;;;;;5076644;28;20221;-83
2021/05/01 02:15:13;;;;;;;10.52;9.43;;;;;;;;;;5076763;28;20197;-83
2021/05/01 02:17:42;;;;;;;10.95;9.77;;;;;;;;;;5076530;28;20199;-83
2021/05/01 02:20:12;;;;;;;11.75;10.57;;;;;;;;;;5075932;28;20211;-83
2021/05/01 02:22:39;;;;;;;10.98;9.65;;;;;;;;;;5075379;28;20307;-83
2021/05/01 02:25:09;;;;;;;12.05;10.20;;;;;;;;;;5075855;28;20197;-83
2021/05/01 02:27:36;;;;;;;11.65;10.13;;;;;;;;;;5075838;28;20212;-83
2021/05/01 02:30:05;;;;;;;11.73;10.57;;;;;;;;;;5076223;28;20205;-83
2021/05/01 02:32:33;;;;;;;11.90;10.70;;;;;;;;;;5075888;28;20221;-83
2021/05/01 02:35:00;;;;;;;11.30;10.10;;;;;;;;;;5076383;28;20192;-83
2021/05/01 02:37:26;;;;;;;12.23;10.98;;;;;;;;;;5076214;28;20209;-83
2021/05/01 02:39:53;;;;;;;12.45;10.48;;;;;;;;;;5075918;28;20204;-83
2021/05/01 02:42:20;;;;;;;12.57;10.73;;;;;;;;;;5075948;28;20225;-84
2021/05/01 02:44:47;;;;;;;12.90;11.38;;;;;;;;;;5076219;28;20221;-83
2021/05/01 02:47:14;;;;;;;10.43;9.43;;;;;;;;;;5076284;28;20197;-83
2021/05/01 02:49:42;;;;;;;10.35;9.25;;;;;;;;;;5076358;28;20208;-83
2021/05/01 02:52:09;;;;;;;12.05;9.63;;;;;;;;;;5076755;28;20221;-83
2021/05/01 02:54:35;;;;;;;12.77;10.27;;;;;;;;;;5077266;28;20205;-84
2021/05/01 02:57:02;;;;;;;9.75;8.85;;;;;;;;;;5076334;28;20215;-83
2021/05/01 02:59:29;;;;;;;11.52;9.48;;;;;;;;;;5075818;28;20585;-83
2021/05/01 03:01:56;;;;;;;10.68;9.57;;;;;;;;;;5076926;28;20204;-83
2021/05/01 03:04:23;;;;;;;11.30;9.45;;;;;;;;;;5076582;28;20256;-83
2021/05/01 03:06:50;;;;;;;11.93;9.80;;;;;;;;;;5076661;28;20209;-83
2021/05/01 03:09:17;;;;;;;11.35;10.25;;;;;;;;;;5076859;28;20197;-83
2021/05/01 03:11:44;;;;;;;12.57;11.38;;;;;;;;;;5077029;28;20205;-83
2021/05/01 03:14:11;;;;;;;12.68;11.25;;;;;;;;;;5077220;28;20555;-83
2021/05/01 03:16:38;;;;;;;11.30;10.07;;;;;;;;;;5076880;28;20567;-84
2021/05/01 03:19:05;;;;;;;12.18;10.98;;;;;;;;;;5077338;28;20205;-83
2021/05/01 03:21:32;;;;;;;13.45;11.93;;;;;;;;;;5077947;28;20209;-83
2021/05/01 03:24:00;;;;;;;14.73;11.75;;;;;;;;;;5080706;28;20229;-83
2021/05/01 03:26:26;;;;;;;12.48;11.18;;;;;;;;;;5081121;28;20637;-84
2021/05/01 03:28:53;;;;;;;12.57;11.23;;;;;;;;;;5080991;28;20205;-83
2021/05/01 03:31:20;;;;;;;12.57;11.25;;;;;;;;;;5081282;28;20201;-83
2021/05/01 03:33:47;;;;;;;12.88;11.57;;;;;;;;;;5081193;28;20737;-83
2021/05/01 03:36:14;;;;;;;12.05;10.48;;;;;;;;;;5080729;28;20204;-83
2021/05/01 03:38:41;;;;;;;11.73;10.52;;;;;;;;;;5080451;28;20209;-83
2021/05/01 03:41:08;;;;;;;14.07;12.57;;;;;;;;;;5080460;28;20205;-83
2021/05/01 03:43:35;;;;;;;11.75;10.63;;;;;;;;;;5081229;28;20240;-83
2021/05/01 03:46:02;;;;;;;16.65;11.70;;;;;;;;;;5080785;28;20230;-83
2021/05/01 03:48:29;;;;;;;11.65;10.45;;;;;;;;;;5081732;28;20190;-83
2021/05/01 03:50:55;;;;;;;11.43;10.13;;;;;;;;;;5080339;28;20201;-83
2021/05/01 03:53:22;;;;;;;11.60;9.77;;;;;;;;;;5080792;28;20217;-84
2021/05/01 03:55:49;;;;;;;10.93;9.93;;;;;;;;;;5081579;28;20205;-83
2021/05/01 03:58:17;;;;;;;11.13;9.48;;;;;;;;;;5081106;28;20201;-83
2021/05/01 04:00:44;;;;;;;11.40;10.20;;;;;;;;;;5080640;28;20201;-83
2021/05/01 04:03:11;;;;;;;11.95;10.70;;;;;;;;;;5081565;28;20217;-83
2021/05/01 04:05:37;;;;;;;12.65;10.68;;;;;;;;;;5080569;28;20224;-83
2021/05/01 04:08:05;;;;;;;11.15;10.00;;;;;;;;;;5081666;28;20212;-83
2021/05/01 04:10:33;;;;;;;11.60;9.90;;;;;;;;;;5081640;28;20201;-84
2021/05/01 04:13:00;;;;;;;12.13;10.15;;;;;;;;;;5081318;28;20378;-83
2021/05/01 04:15:28;;;;;;;10.05;9.00;;;;;;;;;;5081514;28;20197;-83
2021/05/01 04:17:54;;;;;;;10.07;9.07;;;;;;;;;;5081064;28;20201;-83
2021/05/01 04:20:21;;;;;;;10.65;9.55;;;;;;;;;;5081308;28;20205;-84
2021/05/01 04:22:50;;;;;;;9.48;8.55;;;;;;;;;;5080694;28;20236;-83
2021/05/01 04:25:17;;;;;;;10.68;9.57;;;;;;;;;;5081370;28;20256;-83
2021/05/01 04:27:43;;;;;;;9.50;8.55;;;;;;;;;;5081408;28;20200;-83
2021/05/01 04:30:13;;;;;;;10.30;8.95;;;;;;;;;;5081595;28;20581;-84
2021/05/01 04:32:41;;;;;;;9.88;8.70;;;;;;;;;;5081377;28;20251;-83
2021/05/01 04:35:09;;;;;;;10.95;9.45;;;;;;;;;;5080744;28;20205;-83
2021/05/01 04:37:36;;;;;;;9.25;8.35;;;;;;;;;;5080954;28;20715;-83
2021/05/01 04:40:03;;;;;;;10.75;9.57;;;;;;;;;;5080598;28;20205;-83
2021/05/01 04:42:30;;;;;;;10.95;9.85;;;;;;;;;;5082299;28;20228;-83
2021/05/01 04:44:57;;;;;;;12.15;10.02;;;;;;;;;;5081531;28;20232;-84
2021/05/01 04:47:24;;;;;;;10.02;9.02;;;;;;;;;;5080784;28;20201;-84
2021/05/01 04:49:51;;;;;;;11.45;10.35;;;;;;;;;;5080503;28;20258;-84
2021/05/01 04:52:18;;;;;;;11.75;10.27;;;;;;;;;;5081120;28;20221;-84
2021/05/01 04:54:45;;;;;;;11.57;10.43;;;;;;;;;;5081173;28;20201;-84
2021/05/01 04:57:12;;;;;;;12.02;10.80;;;;;;;;;;5081743;28;20204;-84
2021/05/01 04:59:39;;;;;;;13.07;10.65;;;;;;;;;;5081696;28;20648;-83
2021/05/01 05:02:05;;;;;;;13.40;11.30;;;;;;;;;;5078109;28;20806;-83
2021/05/01 05:04:32;;;;;;;12.57;10.80;;;;;;;;;;5078190;28;20295;-83
2021/05/01 05:07:00;;;;;;;11.93;10.77;;;;;;;;;;5079183;28;20197;-83
2021/05/01 05:09:27;;;;;;;11.40;10.20;;;;;;;;;;5078684;28;20213;-83
2021/05/01 05:11:53;;;;;;;12.80;11.25;;;;;;;;;;5082693;28;20201;-83
2021/05/01 05:14:20;;;;;;;11.88;10.65;;;;;;;;;;5087216;28;20197;-82
2021/05/01 05:16:47;;;;;;;12.75;10.45;;;;;;;;;;5086491;28;20225;-83
2021/05/01 05:19:14;;;;;;;11.98;10.77;;;;;;;;;;5086846;28;20197;-83
2021/05/01 05:21:40;;;;;;;11.65;10.43;;;;;;;;;;5086980;28;20197;-83
2021/05/01 05:24:09;;;;;;;13.30;11.32;;;;;;;;;;5086488;28;20225;-83
2021/05/01 05:26:35;;;;;;;12.27;11.00;;;;;;;;;;5085935;28;20201;-82
2021/05/01 05:29:03;;;;;;;12.80;11.48;;;;;;;;;;5073201;28;20224;-83
2021/05/01 05:31:30;;;;;;;13.93;12.30;;;;;;;;;;5073455;28;20208;-83
2021/05/01 05:33:57;;;;;;;13.00;11.55;;;;;;;;;;5073122;28;20719;-83
2021/05/01 05:36:23;;;;;;;11.40;10.30;;;;;;;;;;5073056;28;20204;-82
2021/05/01 05:38:50;;;;;;;12.70;11.40;;;;;;;;;;5073042;28;20593;-82
2021/05/01 05:41:18;;;;;;;13.55;12.13;;;;;;;;;;5072906;28;20282;-82
2021/05/01 05:43:45;;;;;;;12.80;11.40;;;;;;;;;;5072693;28;20726;-82
2021/05/01 05:46:13;;;;;;;11.95;10.68;;;;;;;;;;5071763;28;20225;-83
2021/05/01 05:48:40;;;;;;;13.57;11.90;;;;;;;;;;5073023;28;20207;-83
2021/05/01 05:51:08;;;;;;;13.32;11.85;;;;;;;;;;5072450;28;20213;-83
2021/05/01 05:53:35;;;;;;;13.13;11.60;;;;;;;;;;5072408;28;20224;-82
2021/05/01 05:56:02;;;;;;;12.95;11.20;;;;;;;;;;5073256;28;20208;-82
2021/05/01 05:58:30;;;;;;;16.73;13.80;;;;;;;;;;5072556;28;20195;-83
2021/05/01 06:00:56;;;;;;;16.00;14.30;;;;;;;;;;5072118;28;20211;-82
2021/05/01 06:03:25;;;;;;;17.67;13.38;;;;;;;;;;5072121;28;20232;-82
2021/05/01 06:05:55;;;;;;;13.60;12.10;;;;;;;;;;5072613;28;20224;-83
2021/05/01 06:08:22;;;;;;;14.32;12.32;;;;;;;;;;5072616;28;20215;-83
2021/05/01 06:10:50;;;;;;;14.32;12.55;;;;;;;;;;5072391;28;20209;-83
2021/05/01 06:13:18;;;;;;;14.18;12.70;;;;;;;;;;5072314;28;20221;-82
2021/05/01 06:15:46;;;;;;;14.07;12.30;;;;;;;;;;5072760;28;20197;-83
2021/05/01 06:18:16;;;;;;;13.32;11.82;;;;;;;;;;5072460;28;20185;-83
2021/05/01 06:20:44;;;;;;;13.93;12.07;;;;;;;;;;5072466;28;20204;-83
2021/05/01 06:23:10;;;;;;;15.30;13.02;;;;;;;;;;5072439;28;20259;-83
2021/05/01 06:25:37;;;;;;;15.07;13.48;;;;;;;;;;5072259;28;20225;-83
2021/05/01 06:28:06;;;;;;;15.38;13.68;;;;;;;;;;5072413;28;20197;-82
2021/05/01 06:30:38;;;;;;;15.52;13.52;;;;;;;;;;5072096;28;20208;-83
2021/05/01 06:33:08;;;;;;;16.13;13.23;;;;;;;;;;5072233;28;20594;-82
2021/05/01 06:35:36;;;;;;;14.43;12.50;;;;;;;;;;5072262;28;20561;-82
2021/05/01 06:38:03;;;;;;;16.85;15.07;;;;;;;;;;5072260;28;20211;-82
2021/05/01 06:40:33;;;;;;;16.55;14.75;;;;;;;;;;5071870;28;20193;-82
2021/05/01 06:43:07;;;;;;;15.95;14.13;;;;;;;;;;5071927;28;20589;-82
2021/05/01 06:45:38;;;;;;;20.17;16.05;;;;;;;;;;5072179;28;20221;-83
2021/05/01 06:48:08;;;;;;;17.92;15.30;;;;;;;;;;5072123;28;20247;-83
2021/05/01 06:50:35;;;;;;;18.60;15.95;;;;;;;;;;5071962;28;20205;-83
2021/05/01 06:53:02;;;;;;;17.35;15.48;;;;;;;;;;5072162;28;20221;-83
2021/05/01 06:55:31;;;;;;;19.98;17.35;;;;;;;;;;5071846;28;20205;-83
2021/05/01 06:58:00;;;;;;;18.95;16.05;;;;;;;;;;5075308;28;20201;-83
2021/05/01 07:00:28;;;;;;;20.13;17.73;;;;;;;;;;5076012;28;20571;-83
2021/05/01 07:03:02;;;;;;;17.83;15.35;;;;;;;;;;5075845;28;20225;-82
2021/05/01 07:05:30;;;;;;;23.48;19.25;;;;;;;;;;5075592;28;20217;-83
2021/05/01 07:07:57;;;;;;;19.63;16.23;;;;;;;;;;5075498;28;20201;-83
2021/05/01 07:10:24;;;;;;;18.75;16.80;;;;;;;;;;5076542;28;20211;-83
2021/05/01 07:12:51;;;;;;;18.00;16.08;;;;;;;;;;5076108;28;20232;-83
2021/05/01 07:15:20;;;;;;;17.98;16.08;;;;;;;;;;5076411;28;20201;-83
2021/05/01 07:17:51;;;;;;;18.90;15.15;;;;;;;;;;5076217;28;20193;-83
2021/05/01 07:20:19;;;;;;;17.90;15.52;;;;;;;;;;5076297;28;20232;-83
2021/05/01 07:22:47;;;;;;;18.00;14.65;;;;;;;;;;5075771;28;20304;-83
2021/05/01 07:25:15;;;;;;;17.48;15.68;;;;;;;;;;5075642;28;20706;-83
2021/05/01 07:27:47;;;;;;;17.42;14.00;;;;;;;;;;5075983;28;20208;-83
2021/05/01 07:30:16;;;;;;;16.08;14.40;;;;;;;;;;5075685;28;20287;-83
2021/05/01 07:32:46;;;;;;;19.55;15.82;;;;;;;;;;5075502;28;20270;-83
2021/05/01 07:35:14;;;;;;;14.63;12.95;;;;;;;;;;5075520;28;20207;-83
2021/05/01 07:37:41;;;;;;;16.55;14.30;;;;;;;;;;5076302;28;20212;-83
2021/05/01 07:40:12;;;;;;;18.10;16.20;;;;;;;;;;5075746;28;20582;-84
2021/05/01 07:42:43;;;;;;;18.85;15.40;;;;;;;;;;5075546;28;20217;-84
2021/05/01 07:45:11;;;;;;;18.50;15.20;;;;;;;;;;5075444;28;20232;-83
2021/05/01 07:47:39;;;;;;;18.92;16.08;;;;;;;;;;5075340;28;20238;-83
2021/05/01 07:50:08;;;;;;;18.48;16.20;;;;;;;;;;5075680;28;20193;-83
2021/05/01 07:52:36;;;;;;;20.80;16.60;;;;;;;;;;5075780;28;20225;-83
2021/05/01 07:55:04;;;;;;;17.92;15.65;;;;;;;;;;5075603;28;20200;-84
2021/05/01 07:57:32;;;;;;;18.58;16.48;;;;;;;;;;5075542;28;20586;-83
2021/05/01 07:59:58;;;;;;;21.55;18.85;;;;;;;;;;5075181;28;20201;-83
2021/05/01 08:02:25;;;;;;;20.20;17.33;;;;;;;;;;5075651;28;20233;-83
2021/05/01 08:04:52;;;;;;;22.20;17.40;;;;;;;;;;5076057;28;20258;-83
2021/05/01 08:07:19;;;;;;;21.35;18.42;;;;;;;;;;5076726;28;20197;-83
2021/05/01 08:09:46;;;;;;;22.15;17.02;;;;;;;;;;5075410;28;20209;-83
2021/05/01 08:12:13;;;;;;;27.10;20.38;;;;;;;;;;5076023;28;20275;-83
2021/05/01 08:14:41;;;;;;;23.70;19.52;;;;;;;;;;5075226;28;20212;-84
2021/05/01 08:17:08;;;;;;;22.98;19.58;;;;;;;;;;5075471;28;20205;-83
2021/05/01 08:19:43;;;;;;;24.75;20.27;;;;;;;;;;5076823;28;20205;-84
2021/05/01 08:22:11;;;;;;;28.42;22.83;;;;;;;;;;5076554;28;20244;-83
2021/05/01 08:24:38;;;;;;;27.02;22.30;;;;;;;;;;5076030;28;20204;-83
2021/05/01 08:27:05;;;;;;;25.92;22.63;;;;;;;;;;5075371;28;20232;-84
2021/05/01 08:29:32;;;;;;;26.60;21.52;;;;;;;;;;5074957;28;20588;-84
2021/05/01 08:32:00;;;;;;;26.70;23.17;;;;;;;;;;5074915;28;20224;-84
2021/05/01 08:34:26;;;;;;;27.67;23.95;;;;;;;;;;5075126;28;20201;-84
2021/05/01 08:36:53;;;;;;;32.05;24.08;;;;;;;;;;5075190;28;20201;-84
2021/05/01 08:39:20;;;;;;;29.00;23.17;;;;;;;;;;5075665;28;20201;-84
2021/05/01 08:41:48;;;;;;;28.48;23.17;;;;;;;;;;5075394;28;20687;-84
2021/05/01 08:44:15;;;;;;;30.48;23.55;;;;;;;;;;5074667;28;20217;-84
2021/05/01 08:46:45;;;;;;;31.23;24.13;;;;;;;;;;5074678;28;20213;-84
2021/05/01 08:49:13;;;;;;;30.25;25.58;;;;;;;;;;5074333;28;20205;-84
2021/05/01 08:51:42;;;;;;;30.92;24.60;;;;;;;;;;5074310;28;20201;-84
2021/05/01 08:54:11;;;;;;;36.33;24.13;;;;;;;;;;5074699;28;20687;-83
2021/05/01 08:56:38;;;;;;;30.85;25.88;;;;;;;;;;5076053;28;20201;-83
2021/05/01 08:59:05;;;;;;;30.23;24.80;;;;;;;;;;5075670;28;20207;-84
2021/05/01 09:01:36;;;;;;;33.55;25.25;;;;;;;;;;5076238;28;20197;-84
2021/05/01 09:04:03;;;;;;;33.80;26.33;;;;;;;;;;5075906;28;20259;-84
2021/05/01 09:06:32;;;;;;;28.48;24.88;;;;;;;;;;5075108;28;20229;-84
2021/05/01 09:09:02;;;;;;;32.78;26.58;;;;;;;;;;5075964;28;20580;-84
2021/05/01 09:11:38;;;;;;;34.17;27.40;;;;;;;;;;5075626;28;20201;-84
2021/05/01 09:14:19;;;;;;;36.72;28.88;;;;;;;;;;5076410;28;20250;-84
2021/05/01 09:16:59;;;;;;;36.67;29.10;;;;;;;;;;5076788;28;20200;-84
2021/05/01 09:19:36;;;;;;;35.30;27.25;;;;;;;;;;5077215;28;20196;-84
2021/05/01 09:22:07;;;;;;;34.17;26.60;;;;;;;;;;5076679;28;20232;-84
2021/05/01 09:24:34;;;;;;;33.83;25.58;;;;;;;;;;5075483;28;20200;-84
2021/05/01 09:27:02;;;;;;;37.45;27.25;;;;;;;;;;5075221;28;20221;-84
2021/05/01 09:29:32;;;;;;;33.45;27.70;;;;;;;;;;5075575;28;20209;-84
2021/05/01 09:32:01;;;;;;;37.00;27.85;;;;;;;;;;5074716;28;20232;-84
2021/05/01 09:34:44;;;;;;;37.13;31.15;;;;;;;;;;5075264;28;20204;-84
2021/05/01 09:37:14;;;;;;;36.97;30.65;;;;;;;;;;5075295;28;20259;-84
2021/05/01 09:39:49;;;;;;;34.85;26.83;;;;;;;;;;5075424;28;20207;-84
2021/05/01 09:42:17;;;;;;;33.25;26.15;;;;;;;;;;5075164;28;20590;-85
2021/05/01 09:44:44;;;;;;;32.58;25.70;;;;;;;;;;5076767;28;20201;-85
2021/05/01 09:47:16;;;;;;;33.72;28.05;;;;;;;;;;5074281;28;20216;-84
2021/05/01 09:49:45;;;;;;;35.17;28.20;;;;;;;;;;5073611;28;20230;-85
2021/05/01 09:52:14;;;;;;;31.77;26.95;;;;;;;;;;5073393;28;20236;-85
2021/05/01 09:54:43;;;;;;;29.98;23.63;;;;;;;;;;5073053;28;20200;-85
2021/05/01 09:57:12;;;;;;;28.83;23.50;;;;;;;;;;5073214;28;20274;-84
2021/05/01 09:59:41;;;;;;;28.63;23.45;;;;;;;;;;5073128;28;20209;-83
2021/05/01 10:02:09;;;;;;;32.40;25.15;;;;;;;;;;5073116;28;20221;-84
2021/05/01 10:04:37;;;;;;;30.42;24.15;;;;;;;;;;5072940;28;20229;-84
2021/05/01 10:07:06;;;;;;;32.75;26.02;;;;;;;;;;5073120;28;20233;-84
2021/05/01 10:09:36;;;;;;;32.80;26.50;;;;;;;;;;5073843;28;20480;-84
2021/05/01 10:12:09;;;;;;;31.58;24.98;;;;;;;;;;5073506;28;20225;-84
2021/05/01 10:14:42;;;;;;;32.70;23.77;;;;;;;;;;5073242;28;20205;-84
2021/05/01 10:17:13;;;;;;;37.00;25.15;;;;;;;;;;5072945;28;20196;-84
2021/05/01 10:19:49;;;;;;;34.65;25.55;;;;;;;;;;5073038;28;20197;-84
2021/05/01 10:22:39;;;;;;;30.00;24.30;;;;;;;;;;5073216;28;20699;-84
2021/05/01 10:25:09;;;;;;;34.65;26.38;;;;;;;;;;5073998;28;20193;-84
2021/05/01 10:27:50;;;;;;;35.85;25.35;;;;;;;;;;5073175;28;20279;-83
2021/05/01 10:30:28;;;;;;;29.90;23.13;;;;;;;;;;5073639;28;20207;-83
2021/05/01 10:32:59;;;;;;;31.52;24.60;;;;;;;;;;5072827;28;20600;-84
2021/05/01 10:35:31;;;;;;;25.75;21.60;;;;;;;;;;5073603;28;20583;-83
2021/05/01 10:37:59;;;;;;;32.47;23.48;;;;;;;;;;5073288;28;20737;-84
2021/05/01 10:40:49;;;;;;;30.40;25.02;;;;;;;;;;5073162;28;20580;-83
2021/05/01 10:43:19;;;;;;;30.13;21.77;;;;;;;;;;5073014;28;20220;-83
2021/05/01 10:46:05;;;;;;;30.50;24.35;;;;;;;;;;5073633;28;20207;-83
2021/05/01 10:48:34;;;;;;;30.80;23.67;;;;;;;;;;5073199;28;20296;-83
2021/05/01 10:51:07;;;;;;;27.02;23.05;;;;;;;;;;5073451;28;20208;-82
2021/05/01 10:53:35;;;;;;;30.73;23.33;;;;;;;;;;5073101;28;20240;-82
2021/05/01 10:56:04;;;;;;;31.17;25.92;;;;;;;;;;5073247;28;20200;-82
2021/05/01 10:58:43;;;;;;;29.35;24.15;;;;;;;;;;5073103;28;20205;-83
2021/05/01 11:01:12;;;;;;;26.13;20.77;;;;;;;;;;5073403;28;20250;-82
2021/05/01 11:03:46;;;;;;;29.33;23.05;;;;;;;;;;5072686;28;20232;-82
2021/05/01 11:06:22;;;;;;;29.08;22.88;;;;;;;;;;5072917;28;20201;-83
2021/05/01 11:09:00;;;;;;;30.10;24.73;;;;;;;;;;5072755;28;20571;-83
2021/05/01 11:11:34;;;;;;;32.25;25.30;;;;;;;;;;5072380;28;20208;-82
2021/05/01 11:14:15;;;;;;;29.00;24.15;;;;;;;;;;5072536;28;20277;-83
2021/05/01 11:16:51;;;;;;;28.85;23.58;;;;;;;;;;5072135;28;20201;-82
2021/05/01 11:19:21;;;;;;;31.92;24.67;;;;;;;;;;5072478;28;20196;-83
2021/05/01 11:21:49;;;;;;;29.60;23.75;;;;;;;;;;5072583;28;20233;-84
2021/05/01 11:24:17;;;;;;;27.40;23.60;;;;;;;;;;5072289;28;20201;-83
2021/05/01 11:26:47;;;;;;;31.35;23.15;;;;;;;;;;5072641;28;20225;-84
2021/05/01 11:29:16;;;;;;;26.55;20.92;;;;;;;;;;5072695;28;20237;-83
2021/05/01 11:31:45;;;;;;;26.27;21.42;;;;;;;;;;5072349;28;20209;-84
2021/05/01 11:34:13;;;;;;;25.45;22.10;;;;;;;;;;5072728;28;20201;-83
2021/05/01 11:36:50;;;;;;;28.42;23.17;;;;;;;;;;5073010;28;20204;-84
2021/05/01 11:39:18;;;;;;;30.42;24.48;;;;;;;;;;5072726;28;20254;-83
2021/05/01 11:41:47;;;;;;;27.45;22.58;;;;;;;;;;5072544;28;20212;-83
2021/05/01 11:44:16;;;;;;;29.27;23.55;;;;;;;;;;5074080;28;20205;-83
2021/05/01 11:46:51;;;;;;;28.45;21.60;;;;;;;;;;5075849;28;20236;-83
2021/05/01 11:49:21;;;;;;;25.75;22.17;;;;;;;;;;5076184;28;20580;-83
2021/05/01 11:52:14;;;;;;;31.42;22.83;;;;;;;;;;5075838;28;20208;-85
2021/05/01 11:54:52;;;;;;;24.63;20.30;;;;;;;;;;5075819;28;20558;-83
2021/05/01 11:57:26;;;;;;;31.95;24.55;;;;;;;;;;5075803;28;20298;-83
2021/05/01 11:59:55;;;;;;;29.67;22.05;;;;;;;;;;5075532;28;20679;-83
2021/05/01 12:02:36;;;;;;;30.33;23.00;;;;;;;;;;5075926;28;20221;-83
2021/05/01 12:05:08;;;;;;;30.85;24.63;;;;;;;;;;5075709;28;20742;-84
2021/05/01 12:07:44;;;;;;;27.02;22.80;;;;;;;;;;5075860;28;20283;-84
2021/05/01 12:10:14;;;;;;;30.45;23.85;;;;;;;;;;5075900;28;20204;-84
2021/05/01 12:12:47;;;;;;;28.63;23.90;;;;;;;;;;5075628;28;20221;-83
2021/05/01 12:15:16;;;;;;;27.60;22.45;;;;;;;;;;5075963;28;20679;-84
2021/05/01 12:17:51;;;;;;;28.25;23.17;;;;;;;;;;5075489;28;20205;-84
2021/05/01 12:20:20;;;;;;;27.73;22.52;;;;;;;;;;5076262;28;20204;-84
2021/05/01 12:22:47;;;;;;;29.33;22.80;;;;;;;;;;5074978;28;20247;-83
2021/05/01 12:25:40;;;;;;;28.27;23.20;;;;;;;;;;5075706;28;20676;-84
2021/05/01 12:28:09;;;;;;;25.42;20.38;;;;;;;;;;5075017;28;20225;-84
2021/05/01 12:31:04;;;;;;;23.90;19.08;;;;;;;;;;5075091;28;20197;-84
2021/05/01 12:33:53;;;;;;;27.80;21.40;;;;;;;;;;5075238;28;20217;-83
2021/05/01 12:36:25;;;;;;;30.23;23.02;;;;;;;;;;5075323;28;20259;-84
2021/05/01 12:38:56;;;;;;;27.45;21.95;;;;;;;;;;5075153;28;20201;-83
2021/05/01 12:41:26;;;;;;;29.52;22.40;;;;;;;;;;5075314;28;20181;-83
2021/05/01 12:43:54;;;;;;;28.83;22.55;;;;;;;;;;5075253;28;20224;-84
2021/05/01 12:46:54;;;;;;;28.95;21.95;;;;;;;;;;5075037;28;20584;-83
2021/05/01 12:49:27;;;;;;;21.85;18.75;;;;;;;;;;5075306;28;20205;-83
2021/05/01 12:52:09;;;;;;;25.38;20.67;;;;;;;;;;5074852;28;20201;-84
2021/05/01 12:54:39;;;;;;;24.05;19.33;;;;;;;;;;5075213;28;20208;-83
2021/05/01 12:57:08;;;;;;;24.58;20.10;;;;;;;;;;5075572;28;20235;-84
2021/05/01 12:59:42;;;;;;;30.95;21.08;;;;;;;;;;5075233;28;20220;-84
2021/05/01 13:02:23;;;;;;;23.77;19.45;;;;;;;;;;5075148;28;20216;-83
2021/05/01 13:05:15;;;;;;;25.42;20.92;;;;;;;;;;5074757;28;20278;-83
2021/05/01 13:07:48;;;;;;;29.15;23.55;;;;;;;;;;5075007;28;20236;-83
2021/05/01 13:10:21;;;;;;;29.98;21.98;;;;;;;;;;5074720;28;20298;-83
2021/05/01 13:12:57;;;;;;;29.00;22.35;;;;;;;;;;5074909;28;20300;-84
2021/05/01 13:15:27;;;;;;;32.05;24.38;;;;;;;;;;5074833;28;20220;-83
2021/05/01 13:18:07;;;;;;;30.88;23.60;;;;;;;;;;5074870;28;20659;-83
2021/05/01 13:20:35;;;;;;;28.42;24.17;;;;;;;;;;5075046;28;20274;-83
2021/05/01 13:23:02;;;;;;;29.15;24.65;;;;;;;;;;5074530;28;20220;-83
2021/05/01 13:25:41;;;;;;;30.60;24.45;;;;;;;;;;5075063;28;20201;-83
2021/05/01 13:28:11;;;;;;;33.95;26.00;;;;;;;;;;5074701;28;20313;-83
2021/05/01 13:30:41;;;;;;;29.92;24.90;;;;;;;;;;5075132;28;20189;-83
2021/05/01 13:33:09;;;;;;;32.05;23.88;;;;;;;;;;5074701;28;20653;-83
2021/05/01 13:35:38;;;;;;;33.25;25.58;;;;;;;;;;5074576;28;20577;-83
2021/05/01 13:38:05;;;;;;;32.05;24.60;;;;;;;;;;5074788;28;20287;-84
2021/05/01 13:40:34;;;;;;;29.83;24.92;;;;;;;;;;5074789;28;20201;-83
2021/05/01 13:43:07;;;;;;;28.88;23.38;;;;;;;;;;5074696;28;20641;-83
2021/05/01 13:45:45;;;;;;;25.38;22.25;;;;;;;;;;5075264;28;20219;-84
2021/05/01 13:48:12;;;;;;;27.27;22.67;;;;;;;;;;5074621;28;20220;-83
2021/05/01 13:50:44;;;;;;;27.15;22.83;;;;;;;;;;5074924;28;20178;-84
2021/05/01 13:53:11;;;;;;;30.10;23.08;;;;;;;;;;5074306;28;20220;-83
2021/05/01 13:55:39;;;;;;;27.30;22.55;;;;;;;;;;5074155;28;20667;-84
2021/05/01 13:58:12;;;;;;;28.02;21.90;;;;;;;;;;5074550;28;20196;-84
2021/05/01 14:00:41;;;;;;;28.13;23.08;;;;;;;;;;5074001;28;20205;-84
2021/05/01 14:03:18;;;;;;;28.98;22.10;;;;;;;;;;5074415;28;20320;-84
2021/05/01 14:05:46;;;;;;;30.05;25.40;;;;;;;;;;5074543;28;20197;-83
2021/05/01 14:08:14;;;;;;;26.60;22.98;;;;;;;;;;5073958;28;20221;-83
2021/05/01 14:10:43;;;;;;;26.52;22.27;;;;;;;;;;5074494;28;20702;-83
2021/05/01 14:13:18;;;;;;;28.10;21.98;;;;;;;;;;5074423;28;20229;-83
2021/05/01 14:15:46;;;;;;;27.35;23.00;;;;;;;;;;5075296;28;20211;-84
2021/05/01 14:18:15;;;;;;;31.67;24.98;;;;;;;;;;5075141;28;20205;-84
2021/05/01 14:20:45;;;;;;;25.33;21.38;;;;;;;;;;5074914;28;20604;-84
2021/05/01 14:23:13;;;;;;;28.70;23.10;;;;;;;;;;5074535;28;20225;-84
2021/05/01 14:25:43;;;;;;;28.38;23.33;;;;;;;;;;5074850;28;20177;-84
2021/05/01 14:28:19;;;;;;;27.20;21.27;;;;;;;;;;5074645;28;20228;-83
2021/05/01 14:31:03;;;;;;;28.63;22.77;;;;;;;;;;5075258;28;20205;-83
2021/05/01 14:33:33;;;;;;;31.80;23.50;;;;;;;;;;5075332;28;20754;-83
2021/05/01 14:36:03;;;;;;;27.63;22.80;;;;;;;;;;5074867;28;20209;-84